sensor_id;sensor_type;location;lat;lon;timestamp;P1;durP1;ratioP1;P2;durP2;ratioP2
77868;SDS011;67231;59.144;37.934;2023-02-24T00:01:26;9.48;;;3.65;;
77868;SDS011;67231;59.144;37.934;2023-02-24T00:04:06;11.70;;;3.47;;
77868;SDS011;67231;59.144;37.934;2023-02-24T00:06:35;13.30;;;4.00;;
77868;SDS011;67231;59.144;37.934;2023-02-24T00:11:33;7.65;;;3.20;;
77868;SDS011;67231;59.144;37.934;2023-02-24T00:14:03;10.85;;;3.80;;
77868;SDS011;67231;59.144;37.934;2023-02-24T00:16:31;8.23;;;3.58;;
77868;SDS011;67231;59.144;37.934;2023-02-24T00:18:58;12.25;;;4.32;;
77868;SDS011;67231;59.144;37.934;2023-02-24T00:21:25;8.68;;;3.47;;
77868;SDS011;67231;59.144;37.934;2023-02-24T00:23:53;9.27;;;3.47;;
77868;SDS011;67231;59.144;37.934;2023-02-24T00:26:19;7.07;;;2.88;;
77868;SDS011;67231;59.144;37.934;2023-02-24T00:28:46;9.07;;;3.72;;
77868;SDS011;67231;59.144;37.934;2023-02-24T00:31:13;12.02;;;3.97;;
77868;SDS011;67231;59.144;37.934;2023-02-24T00:33:42;7.13;;;3.42;;
77868;SDS011;67231;59.144;37.934;2023-02-24T00:36:19;9.07;;;3.92;;
77868;SDS011;67231;59.144;37.934;2023-02-24T00:38:50;7.07;;;2.38;;
77868;SDS011;67231;59.144;37.934;2023-02-24T00:41:22;9.05;;;3.25;;
77868;SDS011;67231;59.144;37.934;2023-02-24T00:43:55;7.88;;;3.13;;
77868;SDS011;67231;59.144;37.934;2023-02-24T00:46:38;12.63;;;4.05;;
77868;SDS011;67231;59.144;37.934;2023-02-24T00:49:13;10.57;;;3.72;;
77868;SDS011;67231;59.144;37.934;2023-02-24T00:51:42;6.70;;;3.25;;
77868;SDS011;67231;59.144;37.934;2023-02-24T00:54:11;9.15;;;3.03;;
77868;SDS011;67231;59.144;37.934;2023-02-24T00:56:41;9.15;;;3.97;;
77868;SDS011;67231;59.144;37.934;2023-02-24T00:59:09;10.70;;;3.70;;
77868;SDS011;67231;59.144;37.934;2023-02-24T01:01:37;6.78;;;3.00;;
77868;SDS011;67231;59.144;37.934;2023-02-24T01:04:05;8.48;;;3.80;;
77868;SDS011;67231;59.144;37.934;2023-02-24T01:06:37;9.75;;;2.97;;
77868;SDS011;67231;59.144;37.934;2023-02-24T01:09:06;8.13;;;3.22;;
77868;SDS011;67231;59.144;37.934;2023-02-24T01:11:34;9.93;;;3.22;;
77868;SDS011;67231;59.144;37.934;2023-02-24T01:14:21;7.57;;;3.25;;
77868;SDS011;67231;59.144;37.934;2023-02-24T01:16:49;8.65;;;3.45;;
77868;SDS011;67231;59.144;37.934;2023-02-24T01:19:17;10.75;;;3.70;;
77868;SDS011;67231;59.144;37.934;2023-02-24T01:21:48;10.05;;;3.50;;
77868;SDS011;67231;59.144;37.934;2023-02-24T01:24:20;8.35;;;3.05;;
77868;SDS011;67231;59.144;37.934;2023-02-24T01:26:47;8.05;;;2.60;;
77868;SDS011;67231;59.144;37.934;2023-02-24T01:29:13;8.82;;;3.80;;
77868;SDS011;67231;59.144;37.934;2023-02-24T01:31:40;5.57;;;2.00;;
77868;SDS011;67231;59.144;37.934;2023-02-24T01:36:39;7.90;;;3.05;;
77868;SDS011;67231;59.144;37.934;2023-02-24T01:39:10;8.20;;;3.35;;
77868;SDS011;67231;59.144;37.934;2023-02-24T01:41:39;12.52;;;2.22;;
77868;SDS011;67231;59.144;37.934;2023-02-24T01:46:58;6.10;;;2.72;;
77868;SDS011;67231;59.144;37.934;2023-02-24T01:49:31;7.72;;;3.25;;
77868;SDS011;67231;59.144;37.934;2023-02-24T01:52:05;9.00;;;2.78;;
77868;SDS011;67231;59.144;37.934;2023-02-24T01:54:43;6.40;;;3.05;;
77868;SDS011;67231;59.144;37.934;2023-02-24T01:57:14;6.80;;;2.67;;
77868;SDS011;67231;59.144;37.934;2023-02-24T01:59:48;6.90;;;3.20;;
77868;SDS011;67231;59.144;37.934;2023-02-24T02:02:17;7.30;;;3.35;;
77868;SDS011;67231;59.144;37.934;2023-02-24T02:04:54;8.30;;;3.20;;
77868;SDS011;67231;59.144;37.934;2023-02-24T02:07:29;7.00;;;3.30;;
77868;SDS011;67231;59.144;37.934;2023-02-24T02:09:56;7.68;;;3.08;;
77868;SDS011;67231;59.144;37.934;2023-02-24T02:12:30;8.45;;;2.72;;
77868;SDS011;67231;59.144;37.934;2023-02-24T02:15:10;6.47;;;2.90;;
77868;SDS011;67231;59.144;37.934;2023-02-24T02:17:46;8.07;;;3.58;;
77868;SDS011;67231;59.144;37.934;2023-02-24T02:36:40;8.70;;;2.78;;
77868;SDS011;67231;59.144;37.934;2023-02-24T02:39:11;6.57;;;2.72;;
77868;SDS011;67231;59.144;37.934;2023-02-24T02:47:20;9.88;;;3.47;;
77868;SDS011;67231;59.144;37.934;2023-02-24T02:49:51;6.18;;;2.65;;
77868;SDS011;67231;59.144;37.934;2023-02-24T02:52:40;7.40;;;2.75;;
77868;SDS011;67231;59.144;37.934;2023-02-24T02:55:13;12.30;;;3.30;;
77868;SDS011;67231;59.144;37.934;2023-02-24T02:57:46;6.20;;;2.63;;
77868;SDS011;67231;59.144;37.934;2023-02-24T03:00:20;4.70;;;2.30;;
77868;SDS011;67231;59.144;37.934;2023-02-24T03:02:58;5.15;;;2.08;;
77868;SDS011;67231;59.144;37.934;2023-02-24T03:05:35;7.72;;;3.13;;
77868;SDS011;67231;59.144;37.934;2023-02-24T03:08:13;6.72;;;2.75;;
77868;SDS011;67231;59.144;37.934;2023-02-24T03:10:43;7.97;;;2.92;;
77868;SDS011;67231;59.144;37.934;2023-02-24T03:13:17;7.80;;;3.00;;
77868;SDS011;67231;59.144;37.934;2023-02-24T03:15:49;7.53;;;2.78;;
77868;SDS011;67231;59.144;37.934;2023-02-24T03:18:25;8.70;;;3.35;;
77868;SDS011;67231;59.144;37.934;2023-02-24T03:21:07;5.57;;;2.40;;
77868;SDS011;67231;59.144;37.934;2023-02-24T03:23:45;9.35;;;3.42;;
77868;SDS011;67231;59.144;37.934;2023-02-24T03:26:21;6.47;;;2.90;;
77868;SDS011;67231;59.144;37.934;2023-02-24T03:31:34;12.43;;;3.38;;
77868;SDS011;67231;59.144;37.934;2023-02-24T03:36:39;13.32;;;3.45;;
77868;SDS011;67231;59.144;37.934;2023-02-24T03:39:07;9.20;;;3.25;;
77868;SDS011;67231;59.144;37.934;2023-02-24T03:41:43;7.20;;;3.70;;
77868;SDS011;67231;59.144;37.934;2023-02-24T03:44:15;5.00;;;2.13;;
77868;SDS011;67231;59.144;37.934;2023-02-24T03:46:41;10.65;;;3.40;;
77868;SDS011;67231;59.144;37.934;2023-02-24T03:49:11;8.00;;;3.33;;
77868;SDS011;67231;59.144;37.934;2023-02-24T04:03:50;6.47;;;3.10;;
77868;SDS011;67231;59.144;37.934;2023-02-24T04:06:42;5.18;;;2.33;;
77868;SDS011;67231;59.144;37.934;2023-02-24T04:17:26;7.43;;;3.30;;
77868;SDS011;67231;59.144;37.934;2023-02-24T04:19:58;8.55;;;3.78;;
77868;SDS011;67231;59.144;37.934;2023-02-24T04:22:35;6.82;;;2.63;;
77868;SDS011;67231;59.144;37.934;2023-02-24T04:25:05;10.63;;;3.38;;
77868;SDS011;67231;59.144;37.934;2023-02-24T04:27:40;5.90;;;2.25;;
77868;SDS011;67231;59.144;37.934;2023-02-24T04:30:13;7.93;;;2.78;;
77868;SDS011;67231;59.144;37.934;2023-02-24T04:32:40;6.18;;;2.75;;
77868;SDS011;67231;59.144;37.934;2023-02-24T04:35:11;8.38;;;3.25;;
77868;SDS011;67231;59.144;37.934;2023-02-24T04:37:42;6.68;;;2.85;;
77868;SDS011;67231;59.144;37.934;2023-02-24T04:40:12;8.63;;;3.08;;
77868;SDS011;67231;59.144;37.934;2023-02-24T04:42:43;8.57;;;2.92;;
77868;SDS011;67231;59.144;37.934;2023-02-24T04:45:17;17.30;;;2.95;;
77868;SDS011;67231;59.144;37.934;2023-02-24T04:47:50;7.63;;;2.88;;
77868;SDS011;67231;59.144;37.934;2023-02-24T04:50:22;8.68;;;4.05;;
77868;SDS011;67231;59.144;37.934;2023-02-24T04:52:56;7.60;;;3.15;;
77868;SDS011;67231;59.144;37.934;2023-02-24T04:55:28;4.72;;;1.77;;
77868;SDS011;67231;59.144;37.934;2023-02-24T04:57:58;7.55;;;2.95;;
77868;SDS011;67231;59.144;37.934;2023-02-24T05:00:25;9.98;;;4.10;;
77868;SDS011;67231;59.144;37.934;2023-02-24T05:02:54;4.20;;;1.75;;
77868;SDS011;67231;59.144;37.934;2023-02-24T05:05:22;6.68;;;2.75;;
77868;SDS011;67231;59.144;37.934;2023-02-24T05:07:53;10.07;;;3.53;;
77868;SDS011;67231;59.144;37.934;2023-02-24T05:10:28;7.32;;;3.20;;
77868;SDS011;67231;59.144;37.934;2023-02-24T05:12:59;7.50;;;3.17;;
77868;SDS011;67231;59.144;37.934;2023-02-24T05:15:28;7.35;;;3.28;;
77868;SDS011;67231;59.144;37.934;2023-02-24T05:17:59;10.57;;;3.88;;
77868;SDS011;67231;59.144;37.934;2023-02-24T05:20:26;4.82;;;2.47;;
77868;SDS011;67231;59.144;37.934;2023-02-24T05:23:12;9.60;;;3.65;;
77868;SDS011;67231;59.144;37.934;2023-02-24T05:25:38;5.93;;;2.88;;
77868;SDS011;67231;59.144;37.934;2023-02-24T05:28:07;8.20;;;3.83;;
77868;SDS011;67231;59.144;37.934;2023-02-24T05:30:34;9.75;;;3.83;;
77868;SDS011;67231;59.144;37.934;2023-02-24T05:33:00;4.13;;;2.17;;
77868;SDS011;67231;59.144;37.934;2023-02-24T05:35:26;6.72;;;2.85;;
77868;SDS011;67231;59.144;37.934;2023-02-24T05:37:53;7.97;;;3.53;;
77868;SDS011;67231;59.144;37.934;2023-02-24T05:40:19;9.00;;;4.03;;
77868;SDS011;67231;59.144;37.934;2023-02-24T05:42:48;7.32;;;3.80;;
77868;SDS011;67231;59.144;37.934;2023-02-24T05:45:16;9.05;;;3.33;;
77868;SDS011;67231;59.144;37.934;2023-02-24T05:47:43;9.23;;;3.50;;
77868;SDS011;67231;59.144;37.934;2023-02-24T05:50:12;5.70;;;2.80;;
77868;SDS011;67231;59.144;37.934;2023-02-24T05:52:38;7.32;;;3.20;;
77868;SDS011;67231;59.144;37.934;2023-02-24T05:55:05;7.10;;;2.92;;
77868;SDS011;67231;59.144;37.934;2023-02-24T05:57:31;10.60;;;2.90;;
77868;SDS011;67231;59.144;37.934;2023-02-24T06:00:00;8.30;;;2.72;;
77868;SDS011;67231;59.144;37.934;2023-02-24T06:02:39;8.27;;;3.03;;
77868;SDS011;67231;59.144;37.934;2023-02-24T06:05:15;6.38;;;2.97;;
77868;SDS011;67231;59.144;37.934;2023-02-24T06:07:54;9.32;;;3.67;;
77868;SDS011;67231;59.144;37.934;2023-02-24T06:10:28;6.97;;;3.33;;
77868;SDS011;67231;59.144;37.934;2023-02-24T06:12:56;9.93;;;3.40;;
77868;SDS011;67231;59.144;37.934;2023-02-24T06:15:22;8.60;;;3.67;;
77868;SDS011;67231;59.144;37.934;2023-02-24T06:17:48;7.90;;;3.80;;
77868;SDS011;67231;59.144;37.934;2023-02-24T06:20:15;8.77;;;3.53;;
77868;SDS011;67231;59.144;37.934;2023-02-24T06:22:41;11.93;;;3.70;;
77868;SDS011;67231;59.144;37.934;2023-02-24T06:25:08;6.78;;;2.75;;
77868;SDS011;67231;59.144;37.934;2023-02-24T06:27:36;8.57;;;3.38;;
77868;SDS011;67231;59.144;37.934;2023-02-24T06:30:03;7.72;;;4.00;;
77868;SDS011;67231;59.144;37.934;2023-02-24T06:32:35;10.30;;;3.40;;
77868;SDS011;67231;59.144;37.934;2023-02-24T06:35:01;12.35;;;4.05;;
77868;SDS011;67231;59.144;37.934;2023-02-24T06:37:29;14.95;;;4.90;;
77868;SDS011;67231;59.144;37.934;2023-02-24T06:39:55;12.70;;;4.72;;
77868;SDS011;67231;59.144;37.934;2023-02-24T06:42:22;8.68;;;3.13;;
77868;SDS011;67231;59.144;37.934;2023-02-24T06:44:49;6.25;;;3.17;;
77868;SDS011;67231;59.144;37.934;2023-02-24T06:47:15;7.25;;;3.70;;
77868;SDS011;67231;59.144;37.934;2023-02-24T06:49:42;13.13;;;4.10;;
77868;SDS011;67231;59.144;37.934;2023-02-24T06:52:08;6.50;;;3.10;;
77868;SDS011;67231;59.144;37.934;2023-02-24T06:54:36;9.98;;;3.47;;
77868;SDS011;67231;59.144;37.934;2023-02-24T06:57:02;7.60;;;3.63;;
77868;SDS011;67231;59.144;37.934;2023-02-24T06:59:29;10.60;;;3.90;;
77868;SDS011;67231;59.144;37.934;2023-02-24T07:01:59;12.80;;;4.55;;
77868;SDS011;67231;59.144;37.934;2023-02-24T07:04:28;6.05;;;2.63;;
77868;SDS011;67231;59.144;37.934;2023-02-24T07:06:55;11.05;;;3.90;;
77868;SDS011;67231;59.144;37.934;2023-02-24T07:09:27;8.57;;;3.75;;
77868;SDS011;67231;59.144;37.934;2023-02-24T07:11:55;9.68;;;3.58;;
77868;SDS011;67231;59.144;37.934;2023-02-24T07:14:22;7.65;;;3.50;;
77868;SDS011;67231;59.144;37.934;2023-02-24T07:16:50;10.60;;;3.67;;
77868;SDS011;67231;59.144;37.934;2023-02-24T07:19:20;10.85;;;4.00;;
77868;SDS011;67231;59.144;37.934;2023-02-24T07:21:48;8.32;;;3.55;;
77868;SDS011;67231;59.144;37.934;2023-02-24T07:24:18;11.05;;;4.45;;
77868;SDS011;67231;59.144;37.934;2023-02-24T07:27:02;8.82;;;4.50;;
77868;SDS011;67231;59.144;37.934;2023-02-24T07:29:29;10.65;;;4.20;;
77868;SDS011;67231;59.144;37.934;2023-02-24T07:31:58;14.13;;;4.57;;
77868;SDS011;67231;59.144;37.934;2023-02-24T07:34:26;11.95;;;4.20;;
77868;SDS011;67231;59.144;37.934;2023-02-24T07:36:55;11.35;;;4.78;;
77868;SDS011;67231;59.144;37.934;2023-02-24T07:39:22;8.65;;;3.65;;
77868;SDS011;67231;59.144;37.934;2023-02-24T07:41:49;7.68;;;3.53;;
77868;SDS011;67231;59.144;37.934;2023-02-24T07:44:18;11.88;;;3.95;;
77868;SDS011;67231;59.144;37.934;2023-02-24T07:46:45;8.98;;;3.72;;
77868;SDS011;67231;59.144;37.934;2023-02-24T07:49:14;11.38;;;3.90;;
77868;SDS011;67231;59.144;37.934;2023-02-24T07:51:46;11.80;;;4.43;;
77868;SDS011;67231;59.144;37.934;2023-02-24T07:54:18;11.10;;;3.85;;
77868;SDS011;67231;59.144;37.934;2023-02-24T07:56:46;10.68;;;4.35;;
77868;SDS011;67231;59.144;37.934;2023-02-24T07:59:21;10.70;;;4.90;;
77868;SDS011;67231;59.144;37.934;2023-02-24T08:01:52;10.20;;;4.40;;
77868;SDS011;67231;59.144;37.934;2023-02-24T08:04:22;9.77;;;4.55;;
77868;SDS011;67231;59.144;37.934;2023-02-24T08:06:53;9.00;;;4.05;;
77868;SDS011;67231;59.144;37.934;2023-02-24T08:09:28;9.13;;;4.50;;
77868;SDS011;67231;59.144;37.934;2023-02-24T08:12:31;10.25;;;4.72;;
77868;SDS011;67231;59.144;37.934;2023-02-24T08:15:00;9.90;;;4.68;;
77868;SDS011;67231;59.144;37.934;2023-02-24T08:17:33;10.05;;;4.90;;
77868;SDS011;67231;59.144;37.934;2023-02-24T08:20:00;14.38;;;5.55;;
77868;SDS011;67231;59.144;37.934;2023-02-24T08:22:52;12.10;;;5.65;;
77868;SDS011;67231;59.144;37.934;2023-02-24T08:25:20;9.07;;;4.20;;
77868;SDS011;67231;59.144;37.934;2023-02-24T08:28:01;9.55;;;4.28;;
77868;SDS011;67231;59.144;37.934;2023-02-24T08:30:30;12.05;;;4.65;;
77868;SDS011;67231;59.144;37.934;2023-02-24T08:33:04;9.88;;;3.78;;
77868;SDS011;67231;59.144;37.934;2023-02-24T08:35:33;7.95;;;3.53;;
77868;SDS011;67231;59.144;37.934;2023-02-24T08:38:02;12.20;;;4.53;;
77868;SDS011;67231;59.144;37.934;2023-02-24T08:40:33;8.80;;;4.05;;
77868;SDS011;67231;59.144;37.934;2023-02-24T08:43:15;9.13;;;4.30;;
77868;SDS011;67231;59.144;37.934;2023-02-24T08:46:02;9.40;;;4.38;;
77868;SDS011;67231;59.144;37.934;2023-02-24T08:48:34;8.90;;;4.00;;
77868;SDS011;67231;59.144;37.934;2023-02-24T08:53:49;13.20;;;4.22;;
77868;SDS011;67231;59.144;37.934;2023-02-24T08:56:18;12.68;;;4.65;;
77868;SDS011;67231;59.144;37.934;2023-02-24T08:58:54;10.55;;;4.30;;
77868;SDS011;67231;59.144;37.934;2023-02-24T09:01:26;9.15;;;4.25;;
77868;SDS011;67231;59.144;37.934;2023-02-24T09:04:00;12.57;;;4.72;;
77868;SDS011;67231;59.144;37.934;2023-02-24T09:06:40;12.35;;;5.00;;
77868;SDS011;67231;59.144;37.934;2023-02-24T09:09:08;10.65;;;5.22;;
77868;SDS011;67231;59.144;37.934;2023-02-24T09:11:46;15.20;;;5.65;;
77868;SDS011;67231;59.144;37.934;2023-02-24T09:14:21;13.18;;;5.72;;
77868;SDS011;67231;59.144;37.934;2023-02-24T09:16:51;13.75;;;5.78;;
77868;SDS011;67231;59.144;37.934;2023-02-24T09:19:31;10.73;;;4.57;;
77868;SDS011;67231;59.144;37.934;2023-02-24T09:22:24;14.90;;;5.88;;
77868;SDS011;67231;59.144;37.934;2023-02-24T09:25:12;9.25;;;3.85;;
77868;SDS011;67231;59.144;37.934;2023-02-24T09:28:09;15.32;;;5.88;;
77868;SDS011;67231;59.144;37.934;2023-02-24T09:30:47;20.65;;;6.63;;
77868;SDS011;67231;59.144;37.934;2023-02-24T09:35:50;17.58;;;6.30;;
77868;SDS011;67231;59.144;37.934;2023-02-24T09:38:22;11.68;;;4.65;;
77868;SDS011;67231;59.144;37.934;2023-02-24T09:41:19;12.18;;;5.63;;
77868;SDS011;67231;59.144;37.934;2023-02-24T09:44:03;13.98;;;6.07;;
77868;SDS011;67231;59.144;37.934;2023-02-24T09:46:47;16.98;;;5.85;;
77868;SDS011;67231;59.144;37.934;2023-02-24T09:49:19;15.38;;;5.70;;
77868;SDS011;67231;59.144;37.934;2023-02-24T09:51:51;27.00;;;8.68;;
77868;SDS011;67231;59.144;37.934;2023-02-24T09:54:33;18.00;;;6.25;;
77868;SDS011;67231;59.144;37.934;2023-02-24T09:57:09;21.02;;;8.13;;
77868;SDS011;67231;59.144;37.934;2023-02-24T09:59:53;15.82;;;5.93;;
77868;SDS011;67231;59.144;37.934;2023-02-24T10:05:53;11.48;;;4.55;;
77868;SDS011;67231;59.144;37.934;2023-02-24T10:08:32;10.00;;;4.65;;
77868;SDS011;67231;59.144;37.934;2023-02-24T10:11:03;14.35;;;5.20;;
77868;SDS011;67231;59.144;37.934;2023-02-24T10:13:38;12.40;;;4.80;;
77868;SDS011;67231;59.144;37.934;2023-02-24T10:16:13;8.68;;;3.97;;
77868;SDS011;67231;59.144;37.934;2023-02-24T10:27:20;10.60;;;4.35;;
77868;SDS011;67231;59.144;37.934;2023-02-24T10:32:40;9.93;;;3.95;;
77868;SDS011;67231;59.144;37.934;2023-02-24T10:35:15;11.15;;;4.88;;
77868;SDS011;67231;59.144;37.934;2023-02-24T10:37:44;14.15;;;5.85;;
77868;SDS011;67231;59.144;37.934;2023-02-24T10:40:11;16.80;;;7.10;;
77868;SDS011;67231;59.144;37.934;2023-02-24T10:42:49;14.35;;;5.70;;
77868;SDS011;67231;59.144;37.934;2023-02-24T10:45:24;11.95;;;5.40;;
77868;SDS011;67231;59.144;37.934;2023-02-24T10:47:55;13.68;;;5.25;;
77868;SDS011;67231;59.144;37.934;2023-02-24T10:52:52;13.57;;;5.35;;
77868;SDS011;67231;59.144;37.934;2023-02-24T10:55:29;14.18;;;6.10;;
77868;SDS011;67231;59.144;37.934;2023-02-24T11:01:39;14.68;;;5.20;;
77868;SDS011;67231;59.144;37.934;2023-02-24T11:04:31;10.65;;;4.60;;
77868;SDS011;67231;59.144;37.934;2023-02-24T11:07:31;9.40;;;3.85;;
77868;SDS011;67231;59.144;37.934;2023-02-24T11:10:12;15.13;;;5.65;;
77868;SDS011;67231;59.144;37.934;2023-02-24T11:12:50;11.77;;;5.30;;
77868;SDS011;67231;59.144;37.934;2023-02-24T11:18:37;13.25;;;5.55;;
77868;SDS011;67231;59.144;37.934;2023-02-24T11:21:05;12.63;;;4.95;;
77868;SDS011;67231;59.144;37.934;2023-02-24T11:23:55;14.02;;;5.18;;
77868;SDS011;67231;59.144;37.934;2023-02-24T11:26:25;11.52;;;4.95;;
77868;SDS011;67231;59.144;37.934;2023-02-24T11:31:54;13.73;;;5.63;;
77868;SDS011;67231;59.144;37.934;2023-02-24T11:42:38;19.17;;;6.70;;
77868;SDS011;67231;59.144;37.934;2023-02-24T11:48:04;12.32;;;5.53;;
77868;SDS011;67231;59.144;37.934;2023-02-24T11:55:53;11.98;;;5.40;;
77868;SDS011;67231;59.144;37.934;2023-02-24T12:04:45;10.55;;;5.22;;
77868;SDS011;67231;59.144;37.934;2023-02-24T12:07:33;14.07;;;5.60;;
77868;SDS011;67231;59.144;37.934;2023-02-24T12:10:05;13.05;;;5.07;;
77868;SDS011;67231;59.144;37.934;2023-02-24T12:18:14;8.90;;;4.45;;
77868;SDS011;67231;59.144;37.934;2023-02-24T12:20:47;9.40;;;4.60;;
77868;SDS011;67231;59.144;37.934;2023-02-24T12:26:28;13.88;;;4.90;;
77868;SDS011;67231;59.144;37.934;2023-02-24T12:42:19;20.67;;;7.32;;
77868;SDS011;67231;59.144;37.934;2023-02-24T12:55:29;16.05;;;6.40;;
77868;SDS011;67231;59.144;37.934;2023-02-24T13:03:20;11.40;;;5.00;;
77868;SDS011;67231;59.144;37.934;2023-02-24T13:06:05;11.40;;;5.13;;
77868;SDS011;67231;59.144;37.934;2023-02-24T13:14:55;13.77;;;5.38;;
77868;SDS011;67231;59.144;37.934;2023-02-24T13:19:34;10.80;;;4.28;;
77868;SDS011;67231;59.144;37.934;2023-02-24T13:22:04;10.63;;;4.72;;
77868;SDS011;67231;59.144;37.934;2023-02-24T13:24:37;12.00;;;5.07;;
77868;SDS011;67231;59.144;37.934;2023-02-24T13:27:06;11.93;;;5.10;;
77868;SDS011;67231;59.144;37.934;2023-02-24T13:29:42;13.10;;;5.60;;
77868;SDS011;67231;59.144;37.934;2023-02-24T13:32:22;9.77;;;4.35;;
77868;SDS011;67231;59.144;37.934;2023-02-24T13:35:02;13.38;;;5.40;;
77868;SDS011;67231;59.144;37.934;2023-02-24T13:37:35;17.67;;;6.45;;
77868;SDS011;67231;59.144;37.934;2023-02-24T14:02:25;11.32;;;5.35;;
77868;SDS011;67231;59.144;37.934;2023-02-24T14:04:54;17.95;;;5.70;;
77868;SDS011;67231;59.144;37.934;2023-02-24T14:07:24;12.15;;;4.68;;
77868;SDS011;67231;59.144;37.934;2023-02-24T14:09:55;15.77;;;6.03;;
77868;SDS011;67231;59.144;37.934;2023-02-24T14:12:27;12.98;;;5.20;;
77868;SDS011;67231;59.144;37.934;2023-02-24T14:14:56;13.05;;;5.28;;
77868;SDS011;67231;59.144;37.934;2023-02-24T14:20:07;13.73;;;5.07;;
77868;SDS011;67231;59.144;37.934;2023-02-24T14:22:34;14.13;;;5.32;;
77868;SDS011;67231;59.144;37.934;2023-02-24T14:25:08;16.80;;;6.47;;
77868;SDS011;67231;59.144;37.934;2023-02-24T14:27:36;21.30;;;7.53;;
77868;SDS011;67231;59.144;37.934;2023-02-24T14:30:05;17.95;;;6.60;;
77868;SDS011;67231;59.144;37.934;2023-02-24T14:32:32;17.45;;;7.30;;
77868;SDS011;67231;59.144;37.934;2023-02-24T14:34:58;18.63;;;6.97;;
77868;SDS011;67231;59.144;37.934;2023-02-24T14:37:26;13.38;;;5.10;;
77868;SDS011;67231;59.144;37.934;2023-02-24T14:39:56;20.92;;;7.20;;
77868;SDS011;67231;59.144;37.934;2023-02-24T14:42:24;13.15;;;5.13;;
77868;SDS011;67231;59.144;37.934;2023-02-24T14:44:53;13.70;;;6.07;;
77868;SDS011;67231;59.144;37.934;2023-02-24T14:47:22;18.58;;;7.05;;
77868;SDS011;67231;59.144;37.934;2023-02-24T14:49:51;17.13;;;6.53;;
77868;SDS011;67231;59.144;37.934;2023-02-24T14:52:23;14.13;;;6.63;;
77868;SDS011;67231;59.144;37.934;2023-02-24T14:58:14;15.88;;;6.45;;
77868;SDS011;67231;59.144;37.934;2023-02-24T15:00:48;11.88;;;5.72;;
77868;SDS011;67231;59.144;37.934;2023-02-24T15:05:50;11.02;;;4.78;;
77868;SDS011;67231;59.144;37.934;2023-02-24T15:10:58;18.27;;;6.72;;
77868;SDS011;67231;59.144;37.934;2023-02-24T15:13:33;15.18;;;6.28;;
77868;SDS011;67231;59.144;37.934;2023-02-24T15:16:04;14.23;;;6.53;;
77868;SDS011;67231;59.144;37.934;2023-02-24T15:18:38;20.27;;;7.65;;
77868;SDS011;67231;59.144;37.934;2023-02-24T15:21:06;14.70;;;5.57;;
77868;SDS011;67231;59.144;37.934;2023-02-24T15:23:46;17.88;;;6.25;;
77868;SDS011;67231;59.144;37.934;2023-02-24T15:26:30;15.93;;;6.25;;
77868;SDS011;67231;59.144;37.934;2023-02-24T15:29:00;22.75;;;7.75;;
77868;SDS011;67231;59.144;37.934;2023-02-24T15:31:36;26.42;;;9.45;;
77868;SDS011;67231;59.144;37.934;2023-02-24T15:34:03;16.65;;;6.50;;
77868;SDS011;67231;59.144;37.934;2023-02-24T15:36:30;27.73;;;8.93;;
77868;SDS011;67231;59.144;37.934;2023-02-24T15:38:59;15.70;;;6.15;;
77868;SDS011;67231;59.144;37.934;2023-02-24T15:41:44;21.90;;;7.72;;
77868;SDS011;67231;59.144;37.934;2023-02-24T15:44:27;23.77;;;8.70;;
77868;SDS011;67231;59.144;37.934;2023-02-24T15:46:56;12.48;;;6.60;;
77868;SDS011;67231;59.144;37.934;2023-02-24T15:49:23;16.80;;;8.00;;
77868;SDS011;67231;59.144;37.934;2023-02-24T15:51:53;19.70;;;8.05;;
77868;SDS011;67231;59.144;37.934;2023-02-24T15:54:28;22.60;;;8.98;;
77868;SDS011;67231;59.144;37.934;2023-02-24T15:59:23;16.17;;;7.03;;
77868;SDS011;67231;59.144;37.934;2023-02-24T16:01:50;14.40;;;6.25;;
77868;SDS011;67231;59.144;37.934;2023-02-24T16:04:17;14.65;;;6.15;;
77868;SDS011;67231;59.144;37.934;2023-02-24T16:06:43;16.50;;;6.40;;
77868;SDS011;67231;59.144;37.934;2023-02-24T16:09:29;12.82;;;5.20;;
77868;SDS011;67231;59.144;37.934;2023-02-24T16:12:02;13.38;;;5.53;;
77868;SDS011;67231;59.144;37.934;2023-02-24T16:14:31;16.08;;;6.25;;
77868;SDS011;67231;59.144;37.934;2023-02-24T16:16:58;12.65;;;5.30;;
77868;SDS011;67231;59.144;37.934;2023-02-24T16:19:29;16.08;;;6.22;;
77868;SDS011;67231;59.144;37.934;2023-02-24T16:21:56;10.23;;;5.03;;
77868;SDS011;67231;59.144;37.934;2023-02-24T16:24:22;14.60;;;6.20;;
77868;SDS011;67231;59.144;37.934;2023-02-24T16:26:48;13.32;;;5.43;;
77868;SDS011;67231;59.144;37.934;2023-02-24T16:29:14;12.02;;;5.38;;
77868;SDS011;67231;59.144;37.934;2023-02-24T16:31:40;11.65;;;5.43;;
77868;SDS011;67231;59.144;37.934;2023-02-24T16:34:08;10.90;;;4.80;;
77868;SDS011;67231;59.144;37.934;2023-02-24T16:36:38;14.73;;;5.95;;
77868;SDS011;67231;59.144;37.934;2023-02-24T16:39:08;13.52;;;5.80;;
77868;SDS011;67231;59.144;37.934;2023-02-24T16:41:39;15.90;;;5.90;;
77868;SDS011;67231;59.144;37.934;2023-02-24T16:44:06;16.05;;;6.03;;
77868;SDS011;67231;59.144;37.934;2023-02-24T16:46:34;16.63;;;6.25;;
77868;SDS011;67231;59.144;37.934;2023-02-24T16:49:03;15.82;;;5.55;;
77868;SDS011;67231;59.144;37.934;2023-02-24T16:51:33;15.13;;;6.53;;
77868;SDS011;67231;59.144;37.934;2023-02-24T16:54:00;17.13;;;5.80;;
77868;SDS011;67231;59.144;37.934;2023-02-24T16:56:27;14.63;;;5.38;;
77868;SDS011;67231;59.144;37.934;2023-02-24T16:58:53;13.00;;;5.18;;
77868;SDS011;67231;59.144;37.934;2023-02-24T17:01:19;14.85;;;6.30;;
77868;SDS011;67231;59.144;37.934;2023-02-24T17:03:47;15.25;;;6.28;;
77868;SDS011;67231;59.144;37.934;2023-02-24T17:06:15;16.73;;;5.68;;
77868;SDS011;67231;59.144;37.934;2023-02-24T17:08:41;13.68;;;5.63;;
77868;SDS011;67231;59.144;37.934;2023-02-24T17:11:18;15.98;;;6.05;;
77868;SDS011;67231;59.144;37.934;2023-02-24T17:13:45;14.15;;;6.53;;
77868;SDS011;67231;59.144;37.934;2023-02-24T17:16:12;17.35;;;5.80;;
77868;SDS011;67231;59.144;37.934;2023-02-24T17:18:38;15.55;;;6.15;;
77868;SDS011;67231;59.144;37.934;2023-02-24T17:21:04;15.25;;;6.15;;
77868;SDS011;67231;59.144;37.934;2023-02-24T17:23:30;12.48;;;5.63;;
77868;SDS011;67231;59.144;37.934;2023-02-24T17:25:58;13.20;;;5.60;;
77868;SDS011;67231;59.144;37.934;2023-02-24T17:28:26;15.23;;;6.13;;
77868;SDS011;67231;59.144;37.934;2023-02-24T17:30:52;16.17;;;5.63;;
77868;SDS011;67231;59.144;37.934;2023-02-24T17:33:18;12.07;;;5.70;;
77868;SDS011;67231;59.144;37.934;2023-02-24T17:35:46;13.80;;;5.57;;
77868;SDS011;67231;59.144;37.934;2023-02-24T17:38:38;16.98;;;6.75;;
77868;SDS011;67231;59.144;37.934;2023-02-24T17:41:04;18.15;;;6.18;;
77868;SDS011;67231;59.144;37.934;2023-02-24T17:43:30;16.58;;;6.05;;
77868;SDS011;67231;59.144;37.934;2023-02-24T17:45:57;12.82;;;6.25;;
77868;SDS011;67231;59.144;37.934;2023-02-24T17:48:26;14.57;;;6.60;;
77868;SDS011;67231;59.144;37.934;2023-02-24T17:50:52;15.50;;;6.15;;
77868;SDS011;67231;59.144;37.934;2023-02-24T17:53:18;17.23;;;6.60;;
77868;SDS011;67231;59.144;37.934;2023-02-24T17:55:44;16.95;;;6.10;;
77868;SDS011;67231;59.144;37.934;2023-02-24T17:58:12;17.85;;;6.05;;
77868;SDS011;67231;59.144;37.934;2023-02-24T18:00:38;17.83;;;6.60;;
77868;SDS011;67231;59.144;37.934;2023-02-24T18:03:04;16.23;;;6.35;;
77868;SDS011;67231;59.144;37.934;2023-02-24T18:05:30;14.10;;;5.78;;